Bakersfield, CA

4:27 AM PDT on July 26, 2016 (GMT -0700)
NE Bakersfield | | Change Station

Elev 587 ft 35.40 °N, 118.98 °W | Updated 6 minutes ago

Clear
Clear
75.7 °F
Feels Like 78 °F
N
0.0
Wind Variable Wind from NW
Gusts 0.0 mph

Today
High -- | Low -- °F
--% Chance of Precip.
Yesterday
High -- | Low -- °F
Precip. -- in
Pressure 29.85 in
Visibility 10.0 miles
Clouds Clear
Heat Index 78 °F
Dew Point 49 °F
Humidity 39%
Rainfall 0.00 in
Snow Depth Not available.
6:00 AM 8:04 PM
Waning Gibbous, 55% visible
METAR KBFL 261054Z AUTO 00000KT 10SM CLR 25/03 A2987 RMK AO2 SLP106 T02500033
Pressure 29.85 in
Visibility 10.0 miles
Clouds Clear
Heat Index 78 °F
Dew Point 49 °F
Humidity 39%
Rainfall 0.00 in
Snow Depth Not available.
6:00 AM 8:04 PM
Waning Gibbous, 55% visible
METAR KBFL 261054Z AUTO 00000KT 10SM CLR 25/03 A2987 RMK AO2 SLP106 T02500033

10-Day Weather Forecast

Almanac

Astronomy

Jul. 26, 2016 Rise Set
Actual Time
Civil Twilight
Nautical Twilight
Astronomical Twilight
Moon
Length of Visible Light
Length of Day
Tomorrow will be .
, % of the Moon is Illuminated

Today's Extremes

State Highs State Lows

Community

WunderPhotos

Upload Photos

1,927,575 photos uploaded!

WunderBlog® & News

Nearby

Air Quality

  Air Quality AQ Index Pollutant
Not available.

Snow Depth

Station Depth Elevation

Earthquake Activity

City Distance Mag. Time & Date
Minimum magnitude displayed is 2.5.

Coastal Water Temperatures

Place Temperature

Stations

Nearby Weather Stations

Station Location Temp. Windchill Dew Point Humidity Wind Precip. Elev Updated Type
                   

Watches & Warnings

There are currently no watches in effect.